Kalender
Terminkalender Drucken Email help
Jahresansicht Monatsansicht Wochenansicht Heute Suche Zum ausgwählten Monat wechseln
19. Januar 2018
Montag Dienstag Mittwoch Donnerstag Freitag Samstag Sonntag
1 2 3 4 5 6 7
8 9 10 11 12 13 14
15 16 17 18 19 20 21
22 23 24 25 26 27 28
29 30 31 1 2 3 4

JEvents v1.5.5e   Copyright © 2006-2011

Zufallsbild

Aktuelle Termine

Mo Di Mi Do Fr Sa So
1 2 3 4 5 6 7
8 9 10 11 12 13 14
15 16 17 18 19 20 21
22 23 24 25 26 27 28
29 30 31 1 2 3 4

Pilotenwetter

[source: ADDS]
METAR
EDDH 190450Z 24004KT 8000 BKN005 01/00 Q1001 R05/290195 R15/610395 BECMG SCT005 =
TAF
TAF EDDH 182300Z 1900/2006 23007KT 7000 BKN012 TEMPO 1900/1912 BKN008 PROB30 TEMPO 1900/1912 BKN004 TEMPO 1912/2001 4000 -SHRASN BKN008 BKN012CB =